sensor_id;sensor_type;location;lat;lon;timestamp;pressure;altitude;pressure_sealevel;temperature;humidity
41044;BME280;51680;49.806;18.774;2023-04-09T00:00:00;98014.53;;;6.27;87.01
41044;BME280;51680;49.806;18.774;2023-04-09T00:03:12;98004.66;;;6.37;86.98
41044;BME280;51680;49.806;18.774;2023-04-09T00:06:16;98001.78;;;6.44;86.19
41044;BME280;51680;49.806;18.774;2023-04-09T00:09:18;98004.13;;;6.50;85.93
41044;BME280;51680;49.806;18.774;2023-04-09T00:12:20;98000.53;;;6.54;84.81
41044;BME280;51680;49.806;18.774;2023-04-09T00:15:22;97998.44;;;6.64;84.46
41044;BME280;51680;49.806;18.774;2023-04-09T00:18:24;98003.78;;;6.81;83.75
41044;BME280;51680;49.806;18.774;2023-04-09T00:21:27;97999.97;;;6.89;83.77
41044;BME280;51680;49.806;18.774;2023-04-09T00:24:28;98001.69;;;6.90;83.08
41044;BME280;51680;49.806;18.774;2023-04-09T00:27:30;97999.16;;;6.89;82.91
41044;BME280;51680;49.806;18.774;2023-04-09T00:30:32;98004.34;;;6.89;82.51
41044;BME280;51680;49.806;18.774;2023-04-09T00:33:34;98003.28;;;6.94;82.72
41044;BME280;51680;49.806;18.774;2023-04-09T00:36:37;97999.41;;;7.04;82.44
41044;BME280;51680;49.806;18.774;2023-04-09T00:39:39;98005.47;;;7.03;82.51
41044;BME280;51680;49.806;18.774;2023-04-09T00:42:41;97999.03;;;7.13;82.75
41044;BME280;51680;49.806;18.774;2023-04-09T00:46:03;97998.88;;;7.16;81.96
41044;BME280;51680;49.806;18.774;2023-04-09T00:49:05;97992.34;;;7.28;81.17
41044;BME280;51680;49.806;18.774;2023-04-09T00:52:08;97995.94;;;7.45;81.05
41044;BME280;51680;49.806;18.774;2023-04-09T00:55:11;97990.22;;;7.57;80.75
41044;BME280;51680;49.806;18.774;2023-04-09T00:58:14;97997.53;;;7.68;80.40
41044;BME280;51680;49.806;18.774;2023-04-09T01:01:16;97996.25;;;7.78;80.44
41044;BME280;51680;49.806;18.774;2023-04-09T01:04:18;97986.38;;;7.86;80.79
41044;BME280;51680;49.806;18.774;2023-04-09T01:07:30;97999.03;;;7.93;80.20
41044;BME280;51680;49.806;18.774;2023-04-09T01:10:45;97995.38;;;7.97;80.28
41044;BME280;51680;49.806;18.774;2023-04-09T01:13:54;98007.22;;;8.04;79.86
41044;BME280;51680;49.806;18.774;2023-04-09T01:17:04;98007.63;;;7.95;80.14
41044;BME280;51680;49.806;18.774;2023-04-09T01:20:11;98006.72;;;7.76;80.05
41044;BME280;51680;49.806;18.774;2023-04-09T01:23:18;98013.72;;;7.54;81.26
41044;BME280;51680;49.806;18.774;2023-04-09T01:26:39;98013.47;;;7.40;81.04
41044;BME280;51680;49.806;18.774;2023-04-09T01:29:45;98015.66;;;7.29;81.20
41044;BME280;51680;49.806;18.774;2023-04-09T01:32:49;98019.47;;;7.21;81.55
41044;BME280;51680;49.806;18.774;2023-04-09T01:35:52;98022.31;;;6.93;82.65
41044;BME280;51680;49.806;18.774;2023-04-09T01:38:54;98021.00;;;7.05;82.38
41044;BME280;51680;49.806;18.774;2023-04-09T01:41:57;98003.16;;;7.17;82.35
41044;BME280;51680;49.806;18.774;2023-04-09T01:45:04;98003.31;;;7.34;82.03
41044;BME280;51680;49.806;18.774;2023-04-09T01:48:08;98009.56;;;7.50;81.28
41044;BME280;51680;49.806;18.774;2023-04-09T01:51:10;98003.88;;;7.62;80.80
41044;BME280;51680;49.806;18.774;2023-04-09T01:54:14;98003.47;;;7.71;80.54
41044;BME280;51680;49.806;18.774;2023-04-09T01:57:16;97999.69;;;7.78;79.87
41044;BME280;51680;49.806;18.774;2023-04-09T02:00:20;98007.09;;;7.87;79.66
41044;BME280;51680;49.806;18.774;2023-04-09T02:03:24;98012.72;;;7.97;79.35
41044;BME280;51680;49.806;18.774;2023-04-09T02:06:31;98021.84;;;8.07;78.96
41044;BME280;51680;49.806;18.774;2023-04-09T02:09:36;98013.69;;;8.14;78.76
41044;BME280;51680;49.806;18.774;2023-04-09T02:12:44;98011.72;;;8.19;78.17
41044;BME280;51680;49.806;18.774;2023-04-09T02:15:51;98015.00;;;8.24;78.08
41044;BME280;51680;49.806;18.774;2023-04-09T02:18:53;98017.44;;;8.27;78.09
41044;BME280;51680;49.806;18.774;2023-04-09T02:21:55;98015.72;;;8.28;78.34
41044;BME280;51680;49.806;18.774;2023-04-09T02:24:58;98014.03;;;8.27;78.44
41044;BME280;51680;49.806;18.774;2023-04-09T02:28:00;98004.31;;;8.30;78.55
41044;BME280;51680;49.806;18.774;2023-04-09T02:31:03;98004.03;;;8.36;78.44
41044;BME280;51680;49.806;18.774;2023-04-09T02:34:05;98002.22;;;8.38;77.94
41044;BME280;51680;49.806;18.774;2023-04-09T02:37:07;97994.25;;;8.41;78.07
41044;BME280;51680;49.806;18.774;2023-04-09T02:40:10;97996.81;;;8.43;78.14
41044;BME280;51680;49.806;18.774;2023-04-09T02:43:11;98004.53;;;8.44;78.26
41044;BME280;51680;49.806;18.774;2023-04-09T02:46:15;98006.28;;;8.44;78.08
41044;BME280;51680;49.806;18.774;2023-04-09T02:49:16;98003.75;;;8.42;78.12
41044;BME280;51680;49.806;18.774;2023-04-09T02:52:18;98004.88;;;8.37;78.28
41044;BME280;51680;49.806;18.774;2023-04-09T02:55:23;98013.16;;;8.26;78.84
41044;BME280;51680;49.806;18.774;2023-04-09T02:58:25;98015.66;;;8.29;78.72
41044;BME280;51680;49.806;18.774;2023-04-09T03:01:28;98009.41;;;8.33;78.64
41044;BME280;51680;49.806;18.774;2023-04-09T03:04:30;98013.69;;;8.34;78.80
41044;BME280;51680;49.806;18.774;2023-04-09T03:07:32;98011.84;;;8.36;78.61
41044;BME280;51680;49.806;18.774;2023-04-09T03:10:34;98009.94;;;8.40;78.61
41044;BME280;51680;49.806;18.774;2023-04-09T03:13:36;98008.19;;;8.40;78.70
41044;BME280;51680;49.806;18.774;2023-04-09T03:16:40;97997.56;;;8.45;78.31
41044;BME280;51680;49.806;18.774;2023-04-09T03:19:41;98004.53;;;8.44;78.50
41044;BME280;51680;49.806;18.774;2023-04-09T03:22:43;98005.31;;;8.46;78.13
41044;BME280;51680;49.806;18.774;2023-04-09T03:26:10;97996.75;;;8.44;78.82
41044;BME280;51680;49.806;18.774;2023-04-09T03:29:18;98006.22;;;8.45;78.64
41044;BME280;51680;49.806;18.774;2023-04-09T03:32:22;98001.81;;;8.47;78.38
41044;BME280;51680;49.806;18.774;2023-04-09T03:35:24;98001.72;;;8.49;78.29
41044;BME280;51680;49.806;18.774;2023-04-09T03:38:32;97999.97;;;8.49;78.43
41044;BME280;51680;49.806;18.774;2023-04-09T03:41:38;98005.03;;;8.52;78.15
41044;BME280;51680;49.806;18.774;2023-04-09T03:44:44;98000.72;;;8.51;78.00
41044;BME280;51680;49.806;18.774;2023-04-09T03:47:53;98004.19;;;8.52;77.81
41044;BME280;51680;49.806;18.774;2023-04-09T03:50:57;98001.66;;;8.50;77.77
41044;BME280;51680;49.806;18.774;2023-04-09T03:54:08;98003.50;;;8.48;77.79
41044;BME280;51680;49.806;18.774;2023-04-09T03:57:11;98011.28;;;8.48;77.91
41044;BME280;51680;49.806;18.774;2023-04-09T04:00:16;98021.63;;;8.50;77.70
41044;BME280;51680;49.806;18.774;2023-04-09T04:03:37;98013.91;;;8.48;77.76
41044;BME280;51680;49.806;18.774;2023-04-09T04:07:05;98013.09;;;8.46;78.08
41044;BME280;51680;49.806;18.774;2023-04-09T04:10:18;98016.63;;;8.45;78.19
41044;BME280;51680;49.806;18.774;2023-04-09T04:13:21;98021.84;;;8.45;78.28
41044;BME280;51680;49.806;18.774;2023-04-09T04:16:29;98022.63;;;8.47;78.29
41044;BME280;51680;49.806;18.774;2023-04-09T04:19:34;98024.25;;;8.50;78.05
41044;BME280;51680;49.806;18.774;2023-04-09T04:22:36;98018.13;;;8.51;78.08
41044;BME280;51680;49.806;18.774;2023-04-09T04:25:39;98026.69;;;8.53;78.71
41044;BME280;51680;49.806;18.774;2023-04-09T04:28:44;98029.16;;;8.56;78.41
41044;BME280;51680;49.806;18.774;2023-04-09T04:31:53;98030.16;;;8.53;78.45
41044;BME280;51680;49.806;18.774;2023-04-09T04:34:59;98043.56;;;8.44;78.84
41044;BME280;51680;49.806;18.774;2023-04-09T04:38:01;98045.16;;;8.28;79.12
41044;BME280;51680;49.806;18.774;2023-04-09T04:41:05;98048.81;;;8.04;79.19
41044;BME280;51680;49.806;18.774;2023-04-09T04:44:10;98048.34;;;7.95;79.81
41044;BME280;51680;49.806;18.774;2023-04-09T04:47:14;98037.84;;;7.98;79.67
41044;BME280;51680;49.806;18.774;2023-04-09T04:50:17;98039.78;;;7.93;80.33
41044;BME280;51680;49.806;18.774;2023-04-09T04:53:38;98051.66;;;7.78;80.63
41044;BME280;51680;49.806;18.774;2023-04-09T04:56:44;98047.56;;;7.73;80.64
41044;BME280;51680;49.806;18.774;2023-04-09T04:59:53;98044.84;;;7.76;80.74
41044;BME280;51680;49.806;18.774;2023-04-09T05:02:55;98059.84;;;7.69;80.91
41044;BME280;51680;49.806;18.774;2023-04-09T05:06:08;98054.75;;;7.46;81.62
41044;BME280;51680;49.806;18.774;2023-04-09T05:09:16;98064.94;;;7.31;81.62
41044;BME280;51680;49.806;18.774;2023-04-09T05:12:30;98070.25;;;7.28;84.09
41044;BME280;51680;49.806;18.774;2023-04-09T05:15:32;98060.09;;;7.43;81.21
41044;BME280;51680;49.806;18.774;2023-04-09T05:18:34;98061.03;;;7.62;80.87
41044;BME280;51680;49.806;18.774;2023-04-09T05:21:37;98055.84;;;7.82;80.66
41044;BME280;51680;49.806;18.774;2023-04-09T05:24:40;98050.75;;;7.99;80.56
41044;BME280;51680;49.806;18.774;2023-04-09T05:27:43;98057.66;;;8.20;80.11
41044;BME280;51680;49.806;18.774;2023-04-09T05:30:45;98055.41;;;8.31;80.16
41044;BME280;51680;49.806;18.774;2023-04-09T05:33:49;98060.25;;;8.20;81.08
41044;BME280;51680;49.806;18.774;2023-04-09T05:36:57;98069.34;;;8.10;81.64
41044;BME280;51680;49.806;18.774;2023-04-09T05:40:00;98069.13;;;8.15;81.22
41044;BME280;51680;49.806;18.774;2023-04-09T05:43:03;98064.56;;;8.20;81.10
41044;BME280;51680;49.806;18.774;2023-04-09T05:46:15;98075.47;;;8.29;80.66
41044;BME280;51680;49.806;18.774;2023-04-09T05:49:18;98078.56;;;8.37;80.13
41044;BME280;51680;49.806;18.774;2023-04-09T05:52:24;98074.78;;;8.44;79.93
41044;BME280;51680;49.806;18.774;2023-04-09T05:55:30;98077.16;;;8.49;80.01
41044;BME280;51680;49.806;18.774;2023-04-09T05:58:34;98070.72;;;8.57;79.87
41044;BME280;51680;49.806;18.774;2023-04-09T06:01:36;98075.66;;;8.63;80.12
41044;BME280;51680;49.806;18.774;2023-04-09T06:04:38;98074.88;;;8.80;79.78
41044;BME280;51680;49.806;18.774;2023-04-09T06:07:41;98075.09;;;8.94;79.67
41044;BME280;51680;49.806;18.774;2023-04-09T06:10:43;98079.72;;;9.06;79.22
41044;BME280;51680;49.806;18.774;2023-04-09T06:13:44;98080.13;;;9.15;79.13
41044;BME280;51680;49.806;18.774;2023-04-09T06:16:46;98082.53;;;9.01;79.24
41044;BME280;51680;49.806;18.774;2023-04-09T06:19:48;98087.84;;;8.81;79.93
41044;BME280;51680;49.806;18.774;2023-04-09T06:22:51;98091.78;;;8.71;79.82
41044;BME280;51680;49.806;18.774;2023-04-09T06:25:53;98097.09;;;8.50;81.03
41044;BME280;51680;49.806;18.774;2023-04-09T06:28:55;98091.94;;;8.48;81.21
41044;BME280;51680;49.806;18.774;2023-04-09T06:31:57;98092.94;;;8.46;81.87
41044;BME280;51680;49.806;18.774;2023-04-09T06:34:59;98092.25;;;8.79;81.01
41044;BME280;51680;49.806;18.774;2023-04-09T06:38:02;98088.63;;;9.19;79.58
41044;BME280;51680;49.806;18.774;2023-04-09T06:41:03;98089.63;;;9.52;78.61
41044;BME280;51680;49.806;18.774;2023-04-09T06:44:07;98092.22;;;10.04;77.25
41044;BME280;51680;49.806;18.774;2023-04-09T06:47:09;98082.25;;;10.77;74.79
41044;BME280;51680;49.806;18.774;2023-04-09T06:50:11;98080.06;;;11.32;73.36
41044;BME280;51680;49.806;18.774;2023-04-09T06:53:14;98083.88;;;11.87;71.58
41044;BME280;51680;49.806;18.774;2023-04-09T06:56:17;98075.28;;;12.56;69.91
41044;BME280;51680;49.806;18.774;2023-04-09T06:59:18;98075.88;;;13.03;69.02
41044;BME280;51680;49.806;18.774;2023-04-09T07:02:20;98083.25;;;13.11;68.22
41044;BME280;51680;49.806;18.774;2023-04-09T07:05:22;98092.88;;;13.10;68.04
41044;BME280;51680;49.806;18.774;2023-04-09T07:08:26;98089.31;;;13.11;67.40
41044;BME280;51680;49.806;18.774;2023-04-09T07:11:28;98084.91;;;13.52;66.84
41044;BME280;51680;49.806;18.774;2023-04-09T07:14:30;98072.66;;;14.04;64.80
41044;BME280;51680;49.806;18.774;2023-04-09T07:17:32;98068.22;;;14.69;63.24
41044;BME280;51680;49.806;18.774;2023-04-09T07:20:34;98073.28;;;15.08;62.11
41044;BME280;51680;49.806;18.774;2023-04-09T07:23:37;98069.97;;;15.65;60.04
41044;BME280;51680;49.806;18.774;2023-04-09T07:26:38;98069.06;;;15.77;59.92
41044;BME280;51680;49.806;18.774;2023-04-09T07:29:43;98068.59;;;15.83;58.65
41044;BME280;51680;49.806;18.774;2023-04-09T07:32:45;98068.66;;;15.71;59.47
41044;BME280;51680;49.806;18.774;2023-04-09T07:35:46;98069.19;;;15.52;59.99
41044;BME280;51680;49.806;18.774;2023-04-09T07:38:50;98073.91;;;15.60;60.50
41044;BME280;51680;49.806;18.774;2023-04-09T07:41:51;98072.47;;;15.67;60.05
41044;BME280;51680;49.806;18.774;2023-04-09T07:44:53;98074.72;;;15.84;59.42
41044;BME280;51680;49.806;18.774;2023-04-09T07:47:56;98074.44;;;15.52;59.84
41044;BME280;51680;49.806;18.774;2023-04-09T07:50:57;98085.03;;;15.27;60.74
41044;BME280;51680;49.806;18.774;2023-04-09T07:54:01;98078.22;;;15.25;60.54
41044;BME280;51680;49.806;18.774;2023-04-09T07:57:03;98083.47;;;15.12;60.51
41044;BME280;51680;49.806;18.774;2023-04-09T08:00:05;98082.56;;;14.88;60.48
41044;BME280;51680;49.806;18.774;2023-04-09T08:03:13;98082.09;;;14.58;61.26
41044;BME280;51680;49.806;18.774;2023-04-09T08:06:15;98084.00;;;14.44;61.73
41044;BME280;51680;49.806;18.774;2023-04-09T08:09:19;98085.56;;;14.34;61.93
41044;BME280;51680;49.806;18.774;2023-04-09T08:12:21;98087.59;;;14.16;62.33
41044;BME280;51680;49.806;18.774;2023-04-09T08:15:22;98089.56;;;14.00;62.60
41044;BME280;51680;49.806;18.774;2023-04-09T08:18:25;98095.44;;;14.04;62.51
41044;BME280;51680;49.806;18.774;2023-04-09T08:21:26;98093.25;;;13.98;62.24
41044;BME280;51680;49.806;18.774;2023-04-09T08:24:29;98094.09;;;13.98;62.28
41044;BME280;51680;49.806;18.774;2023-04-09T08:27:31;98097.16;;;13.78;63.13
41044;BME280;51680;49.806;18.774;2023-04-09T08:30:34;98100.00;;;13.75;63.16
41044;BME280;51680;49.806;18.774;2023-04-09T08:33:35;98104.91;;;13.67;63.24
41044;BME280;51680;49.806;18.774;2023-04-09T08:36:37;98102.53;;;13.77;62.88
41044;BME280;51680;49.806;18.774;2023-04-09T08:39:40;98098.47;;;13.85;62.98
41044;BME280;51680;49.806;18.774;2023-04-09T08:42:43;98090.44;;;14.13;62.42
41044;BME280;51680;49.806;18.774;2023-04-09T08:45:45;98098.59;;;14.60;61.60
41044;BME280;51680;49.806;18.774;2023-04-09T08:48:48;98091.22;;;14.90;60.75
41044;BME280;51680;49.806;18.774;2023-04-09T08:51:50;98089.53;;;14.89;59.71
41044;BME280;51680;49.806;18.774;2023-04-09T08:54:53;98089.69;;;14.50;60.25
41044;BME280;51680;49.806;18.774;2023-04-09T08:57:55;98097.44;;;14.39;60.51
41044;BME280;51680;49.806;18.774;2023-04-09T09:00:57;98093.97;;;14.39;60.46
41044;BME280;51680;49.806;18.774;2023-04-09T09:04:00;98091.66;;;14.47;60.18
41044;BME280;51680;49.806;18.774;2023-04-09T09:07:04;98083.25;;;14.54;56.91
41044;BME280;51680;49.806;18.774;2023-04-09T09:10:08;98080.72;;;14.40;59.98
41044;BME280;51680;49.806;18.774;2023-04-09T09:13:21;98079.47;;;14.58;59.03
41044;BME280;51680;49.806;18.774;2023-04-09T09:16:23;98081.78;;;14.50;60.44
41044;BME280;51680;49.806;18.774;2023-04-09T09:19:28;98090.81;;;14.59;59.77
41044;BME280;51680;49.806;18.774;2023-04-09T09:22:47;98081.38;;;14.56;58.17
41044;BME280;51680;49.806;18.774;2023-04-09T09:25:51;98075.47;;;14.53;59.84
41044;BME280;51680;49.806;18.774;2023-04-09T09:28:53;98081.75;;;14.38;59.78
41044;BME280;51680;49.806;18.774;2023-04-09T09:31:55;98082.19;;;14.32;60.51
41044;BME280;51680;49.806;18.774;2023-04-09T09:35:00;98081.13;;;14.34;60.27
41044;BME280;51680;49.806;18.774;2023-04-09T09:38:02;98094.34;;;14.20;60.35
41044;BME280;51680;49.806;18.774;2023-04-09T09:41:16;98084.66;;;14.08;59.30
41044;BME280;51680;49.806;18.774;2023-04-09T09:44:30;98087.09;;;13.85;59.63
41044;BME280;51680;49.806;18.774;2023-04-09T09:47:33;98093.63;;;13.79;61.62
41044;BME280;51680;49.806;18.774;2023-04-09T09:50:37;98084.22;;;14.02;61.39
41044;BME280;51680;49.806;18.774;2023-04-09T09:53:42;98075.59;;;14.26;60.57
41044;BME280;51680;49.806;18.774;2023-04-09T09:56:46;98076.53;;;13.99;59.18
41044;BME280;51680;49.806;18.774;2023-04-09T09:59:54;98077.81;;;13.93;61.02
41044;BME280;51680;49.806;18.774;2023-04-09T10:03:06;98085.22;;;13.74;60.76
41044;BME280;51680;49.806;18.774;2023-04-09T10:06:10;98081.97;;;13.57;61.51
41044;BME280;51680;49.806;18.774;2023-04-09T10:09:13;98078.59;;;13.28;61.57
41044;BME280;51680;49.806;18.774;2023-04-09T10:12:17;98082.13;;;13.15;62.04
41044;BME280;51680;49.806;18.774;2023-04-09T10:15:22;98085.09;;;13.09;62.79
41044;BME280;51680;49.806;18.774;2023-04-09T10:18:24;98091.78;;;13.00;62.93
41044;BME280;51680;49.806;18.774;2023-04-09T10:21:33;98091.28;;;12.94;62.76
41044;BME280;51680;49.806;18.774;2023-04-09T10:24:37;98081.81;;;12.91;64.10
41044;BME280;51680;49.806;18.774;2023-04-09T10:27:41;98081.50;;;12.97;64.22
41044;BME280;51680;49.806;18.774;2023-04-09T10:30:44;98077.06;;;12.98;64.07
41044;BME280;51680;49.806;18.774;2023-04-09T10:33:45;98077.06;;;12.98;64.47
41044;BME280;51680;49.806;18.774;2023-04-09T10:36:52;98075.53;;;12.94;64.30
41044;BME280;51680;49.806;18.774;2023-04-09T10:39:54;98074.19;;;13.02;64.64
41044;BME280;51680;49.806;18.774;2023-04-09T10:42:59;98064.59;;;13.15;64.36
41044;BME280;51680;49.806;18.774;2023-04-09T10:46:04;98073.00;;;13.20;63.74
41044;BME280;51680;49.806;18.774;2023-04-09T10:49:10;98066.44;;;13.27;62.10
41044;BME280;51680;49.806;18.774;2023-04-09T10:52:13;98062.56;;;13.33;62.82
41044;BME280;51680;49.806;18.774;2023-04-09T10:55:35;98057.53;;;13.56;62.12
41044;BME280;51680;49.806;18.774;2023-04-09T10:58:38;98057.13;;;13.62;62.13
41044;BME280;51680;49.806;18.774;2023-04-09T11:01:51;98058.06;;;13.61;60.25
41044;BME280;51680;49.806;18.774;2023-04-09T11:05:03;98059.66;;;13.64;60.91
41044;BME280;51680;49.806;18.774;2023-04-09T11:08:08;98056.78;;;13.54;61.23
41044;BME280;51680;49.806;18.774;2023-04-09T11:11:11;98053.47;;;13.65;61.49
41044;BME280;51680;49.806;18.774;2023-04-09T11:14:19;98050.94;;;13.63;60.52
41044;BME280;51680;49.806;18.774;2023-04-09T11:17:21;98049.25;;;13.62;61.23
41044;BME280;51680;49.806;18.774;2023-04-09T11:20:24;98047.94;;;13.69;61.37
41044;BME280;51680;49.806;18.774;2023-04-09T11:23:26;98051.63;;;13.79;61.38
41044;BME280;51680;49.806;18.774;2023-04-09T11:26:34;98046.72;;;13.61;59.00
41044;BME280;51680;49.806;18.774;2023-04-09T11:29:38;98052.19;;;13.58;60.19
41044;BME280;51680;49.806;18.774;2023-04-09T11:32:40;98051.25;;;13.32;58.80
41044;BME280;51680;49.806;18.774;2023-04-09T11:35:42;98052.81;;;12.94;59.03
41044;BME280;51680;49.806;18.774;2023-04-09T11:38:46;98060.53;;;12.55;58.36
41044;BME280;51680;49.806;18.774;2023-04-09T11:41:48;98058.16;;;12.23;59.98
41044;BME280;51680;49.806;18.774;2023-04-09T11:44:52;98059.84;;;12.10;60.62
41044;BME280;51680;49.806;18.774;2023-04-09T11:47:54;98064.59;;;12.03;61.49
41044;BME280;51680;49.806;18.774;2023-04-09T11:50:56;98061.81;;;12.34;61.90
41044;BME280;51680;49.806;18.774;2023-04-09T11:54:00;98062.03;;;12.59;61.39
41044;BME280;51680;49.806;18.774;2023-04-09T11:57:03;98062.59;;;12.64;60.79
41044;BME280;51680;49.806;18.774;2023-04-09T12:00:09;98064.81;;;12.28;60.33
41044;BME280;51680;49.806;18.774;2023-04-09T12:03:11;98060.66;;;12.10;61.82
41044;BME280;51680;49.806;18.774;2023-04-09T12:06:19;98070.03;;;12.28;61.42
41044;BME280;51680;49.806;18.774;2023-04-09T12:09:46;98070.06;;;12.42;61.69
41044;BME280;51680;49.806;18.774;2023-04-09T12:12:48;98076.19;;;12.13;64.49
41044;BME280;51680;49.806;18.774;2023-04-09T12:15:51;98076.69;;;11.90;65.25
41044;BME280;51680;49.806;18.774;2023-04-09T12:18:53;98076.31;;;11.96;65.15
41044;BME280;51680;49.806;18.774;2023-04-09T12:21:55;98073.50;;;12.15;64.82
41044;BME280;51680;49.806;18.774;2023-04-09T12:24:57;98071.53;;;12.32;64.69
41044;BME280;51680;49.806;18.774;2023-04-09T12:28:00;98065.56;;;12.44;64.38
41044;BME280;51680;49.806;18.774;2023-04-09T12:31:03;98070.25;;;12.25;63.72
41044;BME280;51680;49.806;18.774;2023-04-09T12:34:05;98078.94;;;11.96;65.05
41044;BME280;51680;49.806;18.774;2023-04-09T12:37:07;98072.50;;;11.72;65.95
41044;BME280;51680;49.806;18.774;2023-04-09T12:40:09;98074.22;;;11.73;64.82
41044;BME280;51680;49.806;18.774;2023-04-09T12:43:13;98064.66;;;11.72;64.55
41044;BME280;51680;49.806;18.774;2023-04-09T12:46:16;98071.25;;;11.79;65.78
41044;BME280;51680;49.806;18.774;2023-04-09T12:49:18;98075.75;;;11.91;66.26
41044;BME280;51680;49.806;18.774;2023-04-09T12:52:21;98065.16;;;12.08;65.86
41044;BME280;51680;49.806;18.774;2023-04-09T12:55:25;98060.97;;;12.34;64.81
41044;BME280;51680;49.806;18.774;2023-04-09T12:58:27;98068.19;;;12.58;64.66
41044;BME280;51680;49.806;18.774;2023-04-09T13:01:31;98070.22;;;12.81;64.44
41044;BME280;51680;49.806;18.774;2023-04-09T13:04:33;98068.19;;;13.00;64.30
41044;BME280;51680;49.806;18.774;2023-04-09T13:07:35;98060.66;;;13.22;65.51
41044;BME280;51680;49.806;18.774;2023-04-09T13:10:37;98057.78;;;13.39;64.97
41044;BME280;51680;49.806;18.774;2023-04-09T13:13:39;98058.47;;;13.55;65.30
41044;BME280;51680;49.806;18.774;2023-04-09T13:16:42;98062.81;;;13.69;65.71
41044;BME280;51680;49.806;18.774;2023-04-09T13:19:44;98068.09;;;13.81;66.35
41044;BME280;51680;49.806;18.774;2023-04-09T13:22:46;98065.06;;;13.87;66.24
41044;BME280;51680;49.806;18.774;2023-04-09T13:25:48;98064.25;;;13.99;65.97
41044;BME280;51680;49.806;18.774;2023-04-09T13:28:50;98059.13;;;14.10;66.21
41044;BME280;51680;49.806;18.774;2023-04-09T13:31:54;98059.06;;;14.24;66.38
41044;BME280;51680;49.806;18.774;2023-04-09T13:34:56;98048.66;;;14.35;66.10
41044;BME280;51680;49.806;18.774;2023-04-09T13:37:58;98054.66;;;14.50;65.76
41044;BME280;51680;49.806;18.774;2023-04-09T13:41:00;98052.13;;;14.61;65.47
41044;BME280;51680;49.806;18.774;2023-04-09T13:44:02;98060.22;;;14.70;65.64
41044;BME280;51680;49.806;18.774;2023-04-09T13:47:05;98051.69;;;14.79;64.93
41044;BME280;51680;49.806;18.774;2023-04-09T13:50:09;98049.59;;;14.84;64.46
41044;BME280;51680;49.806;18.774;2023-04-09T13:53:12;98049.34;;;14.87;63.54
41044;BME280;51680;49.806;18.774;2023-04-09T13:56:14;98044.94;;;14.88;62.97
41044;BME280;51680;49.806;18.774;2023-04-09T13:59:16;98046.00;;;14.85;62.68
41044;BME280;51680;49.806;18.774;2023-04-09T14:02:19;98045.38;;;14.82;62.35
41044;BME280;51680;49.806;18.774;2023-04-09T14:05:21;98039.47;;;14.78;62.60
41044;BME280;51680;49.806;18.774;2023-04-09T14:08:23;98040.34;;;14.79;61.95
41044;BME280;51680;49.806;18.774;2023-04-09T14:11:25;98040.69;;;14.74;61.75
41044;BME280;51680;49.806;18.774;2023-04-09T14:14:27;98048.31;;;14.77;61.69
41044;BME280;51680;49.806;18.774;2023-04-09T14:17:30;98030.44;;;14.82;61.69
41044;BME280;51680;49.806;18.774;2023-04-09T14:20:32;98036.78;;;14.67;60.17
41044;BME280;51680;49.806;18.774;2023-04-09T14:23:34;98032.56;;;14.65;60.01
41044;BME280;51680;49.806;18.774;2023-04-09T14:26:36;98030.47;;;14.57;59.74
41044;BME280;51680;49.806;18.774;2023-04-09T14:29:37;98021.66;;;14.46;59.14
41044;BME280;51680;49.806;18.774;2023-04-09T14:32:40;98025.88;;;14.36;59.66
41044;BME280;51680;49.806;18.774;2023-04-09T14:35:42;98025.44;;;14.29;59.98
41044;BME280;51680;49.806;18.774;2023-04-09T14:38:44;98019.63;;;14.12;59.51
41044;BME280;51680;49.806;18.774;2023-04-09T14:41:47;98020.50;;;14.12;59.75
41044;BME280;51680;49.806;18.774;2023-04-09T14:44:49;98020.06;;;14.18;60.37
41044;BME280;51680;49.806;18.774;2023-04-09T14:47:52;98012.84;;;14.22;61.46
41044;BME280;51680;49.806;18.774;2023-04-09T14:50:54;98019.78;;;14.23;60.44
41044;BME280;51680;49.806;18.774;2023-04-09T14:53:56;98008.13;;;14.27;60.54
41044;BME280;51680;49.806;18.774;2023-04-09T14:56:58;98019.13;;;14.19;60.80
41044;BME280;51680;49.806;18.774;2023-04-09T15:00:02;98017.53;;;14.17;60.36
41044;BME280;51680;49.806;18.774;2023-04-09T15:03:05;98017.44;;;14.18;60.54
41044;BME280;51680;49.806;18.774;2023-04-09T15:06:07;98007.59;;;14.22;61.54
41044;BME280;51680;49.806;18.774;2023-04-09T15:09:09;98016.63;;;14.30;62.25
41044;BME280;51680;49.806;18.774;2023-04-09T15:12:11;98014.22;;;14.40;62.24
41044;BME280;51680;49.806;18.774;2023-04-09T15:15:13;98013.78;;;14.46;62.04
41044;BME280;51680;49.806;18.774;2023-04-09T15:18:16;98015.97;;;14.52;61.88
41044;BME280;51680;49.806;18.774;2023-04-09T15:21:18;98012.00;;;14.46;62.27
41044;BME280;51680;49.806;18.774;2023-04-09T15:24:20;98019.88;;;14.46;62.90
41044;BME280;51680;49.806;18.774;2023-04-09T15:27:21;98013.16;;;14.42;63.49
41044;BME280;51680;49.806;18.774;2023-04-09T15:30:23;98014.84;;;14.43;63.95
41044;BME280;51680;49.806;18.774;2023-04-09T15:33:27;98016.84;;;14.40;64.15
41044;BME280;51680;49.806;18.774;2023-04-09T15:36:30;98022.28;;;14.37;64.60
41044;BME280;51680;49.806;18.774;2023-04-09T15:39:32;98023.25;;;14.36;64.67
41044;BME280;51680;49.806;18.774;2023-04-09T15:42:34;98015.69;;;14.31;64.90
41044;BME280;51680;49.806;18.774;2023-04-09T15:45:36;98020.19;;;14.29;65.33
41044;BME280;51680;49.806;18.774;2023-04-09T15:48:39;98028.31;;;14.26;65.20
41044;BME280;51680;49.806;18.774;2023-04-09T15:51:41;98024.81;;;14.26;65.44
41044;BME280;51680;49.806;18.774;2023-04-09T15:54:42;98026.59;;;14.25;65.45
41044;BME280;51680;49.806;18.774;2023-04-09T15:57:44;98028.50;;;14.23;65.45
41044;BME280;51680;49.806;18.774;2023-04-09T16:00:46;98035.06;;;14.16;65.68
41044;BME280;51680;49.806;18.774;2023-04-09T16:03:51;98036.63;;;14.06;65.13
41044;BME280;51680;49.806;18.774;2023-04-09T16:06:52;98028.84;;;13.92;64.67